Time;durP1;ratioP1;P1;durP2;ratioP2;P2;SDS_P1;SDS_P2;PMS_P1;PMS_P2;Temp;Humidity;BMP_temperature;BMP_pressure;BME280_temperature;BME280_humidity;BME280_pressure;Samples;Min_cycle;Max_cycle;Signal;HPM_P1;HPM_P2
2022/09/18 00:02:23;;;;;;;3.33;2.60;;;;;;;19.46;100.00;-18283.75;5071875;28;20185;-64
2022/09/18 00:04:50;;;;;;;3.00;2.70;;;;;;;19.57;100.00;-18286.25;5072199;28;20216;-65
2022/09/18 00:07:18;;;;;;;2.70;2.50;;;;;;;19.55;100.00;-18285.78;5071947;28;20193;-64
2022/09/18 00:09:46;;;;;;;2.90;2.70;;;;;;;19.51;100.00;-18284.94;5072008;28;20189;-64
2022/09/18 00:12:14;;;;;;;3.10;2.90;;;;;;;19.52;100.00;-18285.06;5071751;28;20208;-64
2022/09/18 00:14:41;;;;;;;2.17;2.07;;;;;;;19.57;100.00;-18286.38;5072241;28;20276;-64
2022/09/18 00:17:08;;;;;;;2.00;1.10;;;;;;;19.51;100.00;-18284.81;5071680;28;20710;-64
2022/09/18 00:19:35;;;;;;;1.80;1.80;;;;;;;19.57;100.00;-18286.38;5070492;28;20194;-63
2022/09/18 00:22:02;;;;;;;2.17;2.07;;;;;;;19.60;100.00;-18286.97;5071539;28;20176;-63
2022/09/18 00:24:30;;;;;;;2.73;2.53;;;;;;;19.31;100.00;-18280.16;5071580;28;20192;-63
2022/09/18 00:26:57;;;;;;;2.37;2.27;;;;;;;18.98;100.00;-18272.28;5071970;28;20195;-64
2022/09/18 00:29:24;;;;;;;4.17;2.27;;;;;;;19.08;100.00;-18274.66;5071846;28;20195;-63
2022/09/18 00:31:51;;;;;;;3.67;2.43;;;;;;;19.22;100.00;-18278.00;5071736;28;20214;-64
2022/09/18 00:34:18;;;;;;;2.50;2.40;;;;;;;19.34;100.00;-18280.75;5071869;28;20215;-65
2022/09/18 00:36:45;;;;;;;3.20;2.97;;;;;;;19.47;100.00;-18284.00;5071593;28;20196;-64
2022/09/18 00:39:13;;;;;;;7.30;4.67;;;;;;;19.52;100.00;-18285.19;5072001;28;20634;-64
2022/09/18 00:41:42;;;;;;;12.37;10.03;;;;;;;19.53;100.00;-18285.41;5070696;28;20485;-64
2022/09/18 00:44:40;;;;;;;3.60;2.93;;;;;;;19.56;100.00;-18286.13;5071439;28;20195;-64
2022/09/18 00:47:24;;;;;;;6.40;2.40;;;;;;;19.55;100.00;-18285.91;5009666;28;20594;-64
2022/09/18 00:49:58;;;;;;;2.53;2.33;;;;;;;19.53;100.00;-18285.28;5065000;28;20200;-64
2022/09/18 00:52:29;;;;;;;2.53;2.43;;;;;;;19.29;100.00;-18279.69;5071376;28;20211;-64
2022/09/18 00:55:01;;;;;;;2.37;2.17;;;;;;;19.63;100.00;-18287.56;5074978;28;20185;-64
2022/09/18 00:57:32;;;;;;;4.33;2.40;;;;;;;19.48;100.00;-18284.09;5075208;28;20206;-64
2022/09/18 01:00:02;;;;;;;2.70;2.50;;;;;;;19.06;100.00;-18274.31;5075506;28;20185;-63
2022/09/18 01:02:29;;;;;;;2.43;2.33;;;;;;;19.27;100.00;-18279.09;5075628;28;20254;-63
2022/09/18 01:04:58;;;;;;;2.57;2.37;;;;;;;19.32;100.00;-18280.41;5075643;28;20564;-64
2022/09/18 01:07:35;;;;;;;2.80;2.70;;;;;;;19.31;100.00;-18280.03;5075414;28;20180;-64
2022/09/18 01:10:16;;;;;;;2.60;2.50;;;;;;;19.27;100.00;-18279.22;5075559;28;20185;-64
2022/09/18 01:12:54;;;;;;;4.23;2.37;;;;;;;19.41;100.00;-18282.44;5074751;28;20298;-63
2022/09/18 01:15:30;;;;;;;2.60;2.40;;;;;;;19.33;100.00;-18280.63;5075329;28;20734;-64
2022/09/18 01:18:08;;;;;;;1.80;1.70;;;;;;;19.34;100.00;-18280.88;5075122;28;20232;-63
2022/09/18 01:21:07;;;;;;;2.47;2.23;;;;;;;19.39;100.00;-18281.94;5075301;28;20631;-64
2022/09/18 01:23:56;;;;;;;2.03;1.93;;;;;;;19.16;100.00;-18276.59;5075691;28;20207;-64
2022/09/18 01:26:37;;;;;;;2.10;2.00;;;;;;;19.41;100.00;-18282.44;5074875;28;20228;-64
2022/09/18 01:29:11;;;;;;;2.70;2.17;;;;;;;19.41;100.00;-18282.56;5074967;28;20188;-64
2022/09/18 01:31:44;;;;;;;2.50;2.30;;;;;;;19.42;100.00;-18282.78;5074689;28;20211;-63
2022/09/18 01:34:18;;;;;;;1.80;1.70;;;;;;;19.39;100.00;-18282.06;5074931;28;20224;-63
2022/09/18 01:36:49;;;;;;;4.47;2.20;;;;;;;19.21;100.00;-18277.66;5074617;28;20207;-64
2022/09/18 01:39:20;;;;;;;1.90;1.80;;;;;;;19.22;100.00;-18277.91;5074625;28;20189;-63
2022/09/18 01:41:50;;;;;;;5.23;2.23;;;;;;;19.15;100.00;-18276.34;5074702;28;20185;-64
2022/09/18 01:44:23;;;;;;;5.90;1.90;;;;;;;19.11;100.00;-18275.38;5074806;28;20272;-64
2022/09/18 01:46:51;;;;;;;2.07;1.97;;;;;;;19.06;100.00;-18274.19;5074655;28;20714;-63
2022/09/18 01:49:23;;;;;;;1.97;1.80;;;;;;;19.10;100.00;-18275.16;5074256;28;20185;-63
2022/09/18 01:51:54;;;;;;;1.73;1.63;;;;;;;19.00;100.00;-18272.88;5074346;28;20208;-64
2022/09/18 01:54:24;;;;;;;1.60;1.50;;;;;;;19.13;100.00;-18275.88;5074326;28;20185;-64
2022/09/18 01:56:55;;;;;;;3.07;1.83;;;;;;;19.16;100.00;-18276.59;5074244;28;20317;-64
2022/09/18 01:59:28;;;;;;;6.70;1.97;;;;;;;19.15;100.00;-18276.34;5074524;28;20649;-64
2022/09/18 02:01:59;;;;;;;2.37;1.83;;;;;;;19.04;100.00;-18273.72;5074063;28;20184;-64
2022/09/18 02:04:30;;;;;;;2.03;1.83;;;;;;;19.11;100.00;-18275.50;5073615;28;20187;-64
2022/09/18 02:07:04;;;;;;;8.30;2.60;;;;;;;19.09;100.00;-18275.03;5073625;28;20185;-63
2022/09/18 02:09:32;;;;;;;4.00;2.10;;;;;;;19.04;100.00;-18273.72;5073883;28;20191;-64
2022/09/18 02:12:00;;;;;;;2.20;2.10;;;;;;;18.91;100.00;-18270.72;5074230;28;20201;-64
2022/09/18 02:14:35;;;;;;;7.23;2.37;;;;;;;18.70;100.00;-18265.72;5073860;28;20231;-64
2022/09/18 02:17:05;;;;;;;4.43;2.37;;;;;;;18.77;100.00;-18267.25;5073648;28;20228;-64
2022/09/18 02:19:37;;;;;;;2.90;2.10;;;;;;;18.76;100.00;-18267.03;5073771;28;20181;-64
2022/09/18 02:22:09;;;;;;;4.83;2.33;;;;;;;18.78;100.00;-18267.50;5073652;28;20191;-63
2022/09/18 02:24:40;;;;;;;2.70;2.03;;;;;;;18.81;100.00;-18268.22;5074034;28;20344;-63
2022/09/18 02:27:10;;;;;;;2.80;2.30;;;;;;;18.85;100.00;-18269.19;5073954;28;20208;-63
2022/09/18 02:29:39;;;;;;;2.73;2.03;;;;;;;18.77;100.00;-18267.38;5073942;28;20636;-63
2022/09/18 02:32:06;;;;;;;3.33;2.00;;;;;;;18.81;100.00;-18268.34;5073664;28;20224;-64
2022/09/18 02:34:34;;;;;;;3.87;2.27;;;;;;;18.66;100.00;-18264.88;5073964;28;20189;-63
2022/09/18 02:37:11;;;;;;;7.20;2.07;;;;;;;18.55;100.00;-18262.25;5073917;28;20525;-63
2022/09/18 02:39:49;;;;;;;5.33;2.37;;;;;;;18.67;100.00;-18265.13;5073511;28;20192;-64
2022/09/18 02:42:27;;;;;;;2.80;1.80;;;;;;;18.54;100.00;-18262.00;5073632;28;20183;-64
2022/09/18 02:45:01;;;;;;;5.03;2.27;;;;;;;18.68;100.00;-18265.22;5073268;28;20184;-64
2022/09/18 02:47:40;;;;;;;2.90;1.90;;;;;;;18.73;100.00;-18266.31;5073286;28;20283;-63
2022/09/18 02:50:16;;;;;;;4.33;2.07;;;;;;;18.59;100.00;-18263.19;5073768;28;20212;-63
2022/09/18 02:52:50;;;;;;;3.57;2.13;;;;;;;18.56;100.00;-18262.47;5073365;28;20575;-63
2022/09/18 02:55:21;;;;;;;5.23;1.93;;;;;;;18.48;100.00;-18260.56;5072466;28;20245;-64
2022/09/18 02:57:52;;;;;;;3.67;2.10;;;;;;;18.49;100.00;-18260.81;5073395;28;20559;-64
2022/09/18 03:00:21;;;;;;;2.47;2.33;;;;;;;18.66;100.00;-18264.88;5073194;28;20234;-63
2022/09/18 03:02:50;;;;;;;5.10;1.97;;;;;;;18.51;100.00;-18261.28;5073117;28;20191;-63
2022/09/18 03:05:17;;;;;;;4.13;2.07;;;;;;;18.44;100.00;-18259.63;5073423;28;20196;-63
2022/09/18 03:07:44;;;;;;;2.70;1.80;;;;;;;18.52;100.00;-18261.53;5073149;28;20185;-64
2022/09/18 03:10:11;;;;;;;2.97;1.77;;;;;;;18.55;100.00;-18262.13;5073362;28;20232;-63
2022/09/18 03:12:38;;;;;;;3.33;1.83;;;;;;;18.55;100.00;-18262.25;5072927;28;20220;-61
2022/09/18 03:15:06;;;;;;;2.10;2.00;;;;;;;18.55;100.00;-18262.25;5073109;28;20196;-60
2022/09/18 03:17:34;;;;;;;3.87;1.80;;;;;;;18.60;100.00;-18263.44;5072736;28;20239;-61
2022/09/18 03:20:02;;;;;;;1.73;1.63;;;;;;;18.67;100.00;-18265.13;5072758;28;20242;-60
2022/09/18 03:22:28;;;;;;;1.93;1.70;;;;;;;18.73;100.00;-18266.44;5072713;28;20679;-60
2022/09/18 03:24:55;;;;;;;5.43;2.50;;;;;;;18.78;100.00;-18267.63;5072909;28;20185;-61
2022/09/18 03:27:22;;;;;;;3.23;2.67;;;;;;;18.84;100.00;-18269.06;5072491;28;20217;-61
2022/09/18 03:29:49;;;;;;;8.17;4.37;;;;;;;18.91;100.00;-18270.59;5072359;28;20184;-61
2022/09/18 03:32:16;;;;;;;7.50;6.83;;;;;;;18.90;100.00;-18270.50;5072266;28;20200;-61
2022/09/18 03:34:44;;;;;;;10.43;9.47;;;;;;;18.98;100.00;-18272.41;5072407;28;20185;-61
2022/09/18 03:37:11;;;;;;;12.47;11.17;;;;;;;18.96;100.00;-18271.81;5072302;28;20211;-61
2022/09/18 03:39:38;;;;;;;15.33;13.27;;;;;;;18.98;100.00;-18272.41;5072429;28;20184;-60
2022/09/18 03:42:06;;;;;;;13.60;12.20;;;;;;;18.89;100.00;-18270.25;5072170;28;20193;-61
2022/09/18 03:44:33;;;;;;;13.53;10.30;;;;;;;18.83;100.00;-18268.69;5072443;28;20634;-60
2022/09/18 03:47:00;;;;;;;9.60;8.10;;;;;;;18.82;100.00;-18268.47;5072430;28;20192;-61
2022/09/18 03:49:26;;;;;;;5.07;4.67;;;;;;;18.62;100.00;-18263.91;5072153;28;20185;-61
2022/09/18 03:51:55;;;;;;;2.90;2.80;;;;;;;18.75;100.00;-18266.91;5071927;28;20196;-61
2022/09/18 03:54:21;;;;;;;4.50;2.80;;;;;;;18.76;100.00;-18267.03;5072387;28;20185;-61
2022/09/18 03:56:48;;;;;;;2.10;2.00;;;;;;;18.77;100.00;-18267.25;5072578;28;20215;-61
2022/09/18 03:59:15;;;;;;;3.00;2.80;;;;;;;18.84;100.00;-18268.94;5072390;28;20189;-61
2022/09/18 04:01:42;;;;;;;3.20;2.97;;;;;;;18.73;100.00;-18266.31;5072093;28;20184;-60
2022/09/18 04:04:09;;;;;;;4.73;2.93;;;;;;;18.91;100.00;-18270.72;5071876;28;20187;-61
2022/09/18 04:06:36;;;;;;;3.53;3.23;;;;;;;18.83;100.00;-18268.69;5071818;28;20272;-60
2022/09/18 04:09:04;;;;;;;4.30;4.00;;;;;;;18.98;100.00;-18272.28;5070632;28;20195;-61
2022/09/18 04:11:31;;;;;;;3.80;3.70;;;;;;;19.01;100.00;-18273.13;5070413;28;20206;-60
2022/09/18 04:13:58;;;;;;;4.37;4.00;;;;;;;19.07;100.00;-18274.56;5071803;28;20219;-60
2022/09/18 04:16:25;;;;;;;4.93;4.50;;;;;;;18.98;100.00;-18272.41;5071622;28;20188;-58
2022/09/18 04:18:52;;;;;;;6.00;4.77;;;;;;;19.09;100.00;-18275.03;5071521;28;20191;-61
2022/09/18 04:21:19;;;;;;;5.07;4.77;;;;;;;19.14;100.00;-18276.09;5071571;28;20304;-61
2022/09/18 04:23:46;;;;;;;5.00;4.70;;;;;;;19.44;100.00;-18283.28;5071971;28;20232;-61
2022/09/18 04:26:14;;;;;;;4.10;3.90;;;;;;;19.46;100.00;-18283.75;5071447;28;20189;-61
2022/09/18 04:28:41;;;;;;;10.57;4.37;;;;;;;19.52;100.00;-18285.19;5070979;28;20193;-61
2022/09/18 04:31:11;;;;;;;4.27;4.07;;;;;;;19.73;100.00;-18290.06;5071788;28;20192;-62
2022/09/18 04:33:38;;;;;;;4.07;3.87;;;;;;;19.73;100.00;-18289.94;5071764;28;20212;-61
2022/09/18 04:36:05;;;;;;;4.00;3.80;;;;;;;19.79;100.00;-18291.38;5071426;28;20189;-61
2022/09/18 04:38:32;;;;;;;4.13;3.83;;;;;;;19.83;100.00;-18292.34;5071601;28;20197;-61
2022/09/18 04:41:00;;;;;;;4.03;3.83;;;;;;;20.09;100.00;-17651.34;5071520;28;20220;-60
2022/09/18 04:43:29;;;;;;;3.90;3.47;;;;;;;20.06;100.00;-13453.31;5071736;28;20527;-61
2022/09/18 04:45:56;;;;;;;3.50;3.33;;;;;;;19.98;100.00;-13775.13;5071568;28;20187;-61
2022/09/18 04:48:23;;;;;;;2.70;2.40;;;;;;;19.78;100.00;-7954.25;5071690;28;20558;-61
2022/09/18 04:50:51;;;;;;;2.80;1.80;;;;;;;19.47;100.00;3383.94;5071502;28;20195;-60
2022/09/18 04:53:18;;;;;;;1.53;1.53;;;;;;;19.45;100.00;5980.25;5071510;28;20232;-61
2022/09/18 04:55:46;;;;;;;1.77;1.77;;;;;;;19.29;100.00;5004.13;5071418;28;20192;-60
2022/09/18 04:58:14;;;;;;;1.77;1.57;;;;;;;19.18;100.00;3705.06;5071219;28;20267;-61
2022/09/18 05:00:42;;;;;;;2.73;2.43;;;;;;;19.26;100.00;1436.16;5071162;28;20185;-60
2022/09/18 05:03:09;;;;;;;2.67;2.57;;;;;;;19.15;100.00;787.25;5071415;28;20184;-61
2022/09/18 05:05:36;;;;;;;2.30;2.30;;;;;;;19.15;100.00;1435.31;5071133;28;20195;-61
2022/09/18 05:08:03;;;;;;;3.03;2.63;;;;;;;19.19;100.00;-832.34;5071368;28;20278;-61
2022/09/18 05:10:30;;;;;;;2.57;2.37;;;;;;;19.14;100.00;139.19;5071440;28;20551;-60
2022/09/18 05:12:57;;;;;;;2.10;2.10;;;;;;;18.86;100.00;3053.19;5071359;28;20671;-60
2022/09/18 05:15:24;;;;;;;1.57;1.50;;;;;;;18.53;100.00;15381.94;5071056;28;20191;-60
2022/09/18 05:18:00;;;;;;;1.00;1.00;;;;;;;18.40;100.00;19606.78;5070999;28;20224;-61
2022/09/18 05:20:27;;;;;;;6.00;1.40;;;;;;;18.20;100.00;17647.59;5071460;28;20207;-60
2022/09/18 05:22:54;;;;;;;2.00;1.10;;;;;;;18.87;100.00;30063.72;5071413;28;20207;-61
2022/09/18 05:25:22;;;;;;;3.43;1.20;;;;;;;18.97;100.00;42839.34;5070974;28;20181;-60
2022/09/18 05:27:55;;;;;;;1.20;1.10;;;;;;;19.09;100.00;48102.44;5070980;28;20232;-60
2022/09/18 05:30:23;;;;;;;4.87;1.20;;;;;;;19.06;100.00;56654.28;5071119;28;20189;-60
2022/09/18 05:32:55;;;;;;;1.70;0.80;;;;;;;18.91;100.00;57957.84;5070703;28;20219;-61
2022/09/18 05:35:24;;;;;;;1.03;1.03;;;;;;;18.83;100.00;66196.19;5071039;28;20189;-61
2022/09/18 05:37:51;;;;;;;0.80;0.80;;;;;;;18.96;100.00;70177.13;5070838;28;20189;-61
2022/09/18 05:40:18;;;;;;;1.93;0.70;;;;;;;19.55;100.00;103510.28;5071962;28;20189;-60
2022/09/18 05:42:46;;;;;;;0.77;0.70;;;;;;;20.34;100.00;151151.38;5074896;28;20191;-60
2022/09/18 05:45:13;;;;;;;2.97;0.70;;;;;;;20.58;100.00;151211.19;5074548;28;20185;-61
2022/09/18 05:47:40;;;;;;;0.60;0.57;;;;;;;20.75;100.00;151254.50;5074429;28;20185;-60
2022/09/18 05:50:09;;;;;;;1.40;0.50;;;;;;;20.69;100.00;151239.25;5074670;28;20189;-60
2022/09/18 05:52:37;;;;;;;1.80;0.47;;;;;;;20.73;100.00;151249.44;5074376;28;20185;-61
2022/09/18 05:55:05;;;;;;;0.80;0.60;;;;;;;20.17;100.00;151108.03;5074311;28;20189;-60
2022/09/18 05:57:31;;;;;;;5.40;0.57;;;;;;;20.09;100.00;151087.66;5074621;28;20185;-60
2022/09/18 05:59:58;;;;;;;1.63;0.47;;;;;;;20.17;100.00;151108.03;5074167;28;20223;-62
2022/09/18 06:02:25;;;;;;;2.40;0.40;;;;;;;20.14;100.00;151099.13;5074152;28;20208;-62
2022/09/18 06:04:52;;;;;;;7.67;0.60;;;;;;;20.21;100.00;151116.94;5074251;28;20207;-60
2022/09/18 06:07:19;;;;;;;2.73;1.20;;;;;;;20.28;100.00;151134.78;5074318;28;20192;-60
2022/09/18 06:09:47;;;;;;;4.27;0.80;;;;;;;20.57;100.00;151208.69;5073879;28;20188;-61
2022/09/18 06:12:14;;;;;;;1.77;0.30;;;;;;;20.68;100.00;151235.41;5073898;28;20284;-61
2022/09/18 06:14:41;;;;;;;0.97;0.40;;;;;;;20.65;100.00;151227.78;5073920;28;20209;-61
2022/09/18 06:17:08;;;;;;;2.67;0.30;;;;;;;20.85;100.00;151280.00;5073783;28;20302;-61
2022/09/18 06:19:35;;;;;;;3.20;0.60;;;;;;;21.01;100.00;151319.47;5073814;28;20195;-61
2022/09/18 06:22:02;;;;;;;1.90;0.50;;;;;;;20.91;100.00;151294.03;5073754;28;20195;-61
2022/09/18 06:24:29;;;;;;;0.40;0.40;;;;;;;20.92;100.00;151296.53;5074046;28;20654;-60
2022/09/18 06:26:57;;;;;;;4.22;0.75;;;;;;;20.90;100.00;151291.47;5073713;28;20214;-61
2022/09/18 06:29:24;;;;;;;10.43;0.60;;;;;;;21.24;100.00;151378.16;5073622;28;20276;-61
2022/09/18 06:31:51;;;;;;;1.87;0.67;;;;;;;21.47;100.00;151434.25;5073452;28;20188;-61
2022/09/18 06:34:18;;;;;;;0.23;0.23;;;;;;;21.83;100.00;151527.25;5073813;28;20578;-61
2022/09/18 06:36:45;;;;;;;0.57;0.40;;;;;;;21.37;100.00;151411.28;5073396;28;20184;-61
2022/09/18 06:39:12;;;;;;;3.20;0.60;;;;;;;21.62;100.00;151472.44;5073559;28;20192;-61
2022/09/18 06:41:39;;;;;;;3.87;0.60;;;;;;;21.58;100.00;151463.53;5073645;28;20635;-61
2022/09/18 06:44:07;;;;;;;0.77;0.30;;;;;;;21.31;100.00;151395.97;5073669;28;20206;-61
2022/09/18 06:46:34;;;;;;;1.93;0.50;;;;;;;21.43;100.00;151426.56;5073167;28;20196;-61
2022/09/18 06:49:01;;;;;;;1.80;0.30;;;;;;;21.49;100.00;151440.59;5073400;28;20185;-61
2022/09/18 06:51:28;;;;;;;2.30;0.90;;;;;;;21.51;100.00;151444.44;5072991;28;20195;-62
2022/09/18 06:53:55;;;;;;;0.88;0.60;;;;;;;21.18;100.00;151361.56;5073350;28;20679;-61
2022/09/18 06:56:22;;;;;;;1.23;0.40;;;;;;;21.37;100.00;151411.28;5073072;28;20612;-61
2022/09/18 06:58:52;;;;;;;3.37;0.43;;;;;;;21.05;100.00;151328.44;5073331;28;20633;-62
2022/09/18 07:01:20;;;;;;;0.60;0.40;;;;;;;20.94;100.00;151301.66;5072923;28;20224;-61
2022/09/18 07:03:48;;;;;;;5.60;0.60;;;;;;;21.03;100.00;151323.31;5073205;28;20650;-61
2022/09/18 07:06:15;;;;;;;3.43;0.40;;;;;;;20.94;100.00;151301.66;5073045;28;20189;-60
2022/09/18 07:08:42;;;;;;;2.10;0.40;;;;;;;20.88;100.00;151286.34;5072814;28;20188;-60
2022/09/18 07:11:08;;;;;;;7.13;0.80;;;;;;;20.56;100.00;151204.84;5072760;28;20181;-61
2022/09/18 07:13:36;;;;;;;3.00;0.50;;;;;;;20.43;100.00;151174.28;5071325;28;20295;-60
2022/09/18 07:16:03;;;;;;;7.17;0.50;;;;;;;20.59;100.00;151212.47;5072654;28;20185;-60
2022/09/18 07:18:32;;;;;;;5.87;0.43;;;;;;;20.81;100.00;151268.53;5072569;28;20289;-61
2022/09/18 07:20:59;;;;;;;0.77;0.50;;;;;;;20.79;100.00;151264.69;5071716;28;20650;-62
2022/09/18 07:23:28;;;;;;;0.57;0.40;;;;;;;20.91;100.00;151294.03;5072773;28;20195;-62
2022/09/18 07:25:55;;;;;;;2.33;0.60;;;;;;;20.72;100.00;151246.88;5072730;28;20558;-61
2022/09/18 07:28:22;;;;;;;4.60;0.50;;;;;;;20.24;100.00;151125.81;5072763;28;20180;-60
2022/09/18 07:30:49;;;;;;;5.27;0.60;;;;;;;19.99;100.00;151062.19;5072665;28;20640;-60
2022/09/18 07:33:16;;;;;;;2.00;0.50;;;;;;;19.76;100.00;151003.66;5072522;28;20195;-59
2022/09/18 07:35:44;;;;;;;2.83;0.60;;;;;;;19.63;100.00;150971.81;5072223;28;20196;-60
2022/09/18 07:38:11;;;;;;;2.20;0.97;;;;;;;19.85;100.00;151026.56;5072403;28;20279;-60
2022/09/18 07:40:39;;;;;;;0.50;0.50;;;;;;;19.71;100.00;150990.91;5072032;28;20199;-60
2022/09/18 07:43:08;;;;;;;0.97;0.60;;;;;;;19.74;100.00;150998.53;5072373;28;20691;-61
2022/09/18 07:45:35;;;;;;;1.77;0.80;;;;;;;19.93;100.00;151048.19;5072407;28;20500;-61
2022/09/18 07:48:04;;;;;;;3.70;0.63;;;;;;;19.94;100.00;151049.47;5072347;28;20640;-60
2022/09/18 07:50:32;;;;;;;9.37;1.00;;;;;;;19.70;100.00;150988.34;5071906;28;20189;-60
2022/09/18 07:53:04;;;;;;;2.67;0.90;;;;;;;19.86;100.00;151030.34;5072192;28;20215;-60
2022/09/18 07:55:31;;;;;;;2.37;0.80;;;;;;;19.82;100.00;151018.88;5071759;28;20209;-60
2022/09/18 07:58:00;;;;;;;1.90;0.60;;;;;;;19.95;100.00;151052.00;5071946;28;20199;-61
2022/09/18 08:00:29;;;;;;;2.87;0.80;;;;;;;20.03;100.00;151073.63;5071915;28;20272;-61
2022/09/18 08:03:02;;;;;;;2.90;0.80;;;;;;;20.19;100.00;151113.13;5071187;28;20191;-61
2022/09/18 08:05:28;;;;;;;1.70;0.60;;;;;;;20.40;100.00;151166.66;5071731;28;20181;-61
2022/09/18 08:07:55;;;;;;;4.10;0.73;;;;;;;20.35;100.00;151153.91;5070639;28;20192;-61
2022/09/18 08:10:24;;;;;;;1.20;1.10;;;;;;;20.26;100.00;151129.66;5071784;28;20181;-61
2022/09/18 08:12:53;;;;;;;2.40;0.80;;;;;;;20.29;100.00;151137.28;5071769;28;20283;-61
2022/09/18 08:15:20;;;;;;;3.30;0.80;;;;;;;20.32;100.00;151145.03;5070471;28;20204;-60
2022/09/18 08:17:47;;;;;;;1.83;0.67;;;;;;;20.52;100.00;151197.22;5071709;28;20701;-62
2022/09/18 08:20:14;;;;;;;0.90;0.90;;;;;;;20.58;100.00;151211.19;5071867;28;20558;-61
2022/09/18 08:22:42;;;;;;;4.70;0.70;;;;;;;20.67;100.00;151232.84;5072045;28;20703;-62
2022/09/18 08:25:09;;;;;;;1.90;1.00;;;;;;;20.71;100.00;151243.09;5071515;28;20202;-61
2022/09/18 08:27:38;;;;;;;11.03;0.80;;;;;;;21.00;100.00;151315.69;5070612;28;20188;-61
2022/09/18 08:30:07;;;;;;;1.73;0.70;;;;;;;21.08;100.00;151336.06;5070610;28;20537;-61
2022/09/18 08:32:34;;;;;;;0.87;0.87;;;;;;;21.35;100.00;151406.16;5071755;28;20207;-61
2022/09/18 08:35:02;;;;;;;1.07;1.07;;;;;;;20.88;100.00;151286.34;5071898;28;20575;-61
2022/09/18 08:37:30;;;;;;;3.42;0.85;;;;;;;20.90;100.00;151292.75;5071404;28;20192;-61
2022/09/18 08:39:57;;;;;;;2.37;0.90;;;;;;;21.04;100.00;151327.16;5071631;28;20181;-62
2022/09/18 08:42:32;;;;;;;1.70;0.87;;;;;;;20.79;100.00;151264.69;5071701;28;20192;-62
2022/09/18 08:45:09;;;;;;;2.13;1.02;;;;;;;21.15;100.00;151355.22;5071369;28;20193;-61
2022/09/18 08:47:40;;;;;;;2.97;0.80;;;;;;;21.12;100.00;151347.59;5071467;28;20299;-61
2022/09/18 08:50:16;;;;;;;3.23;1.00;;;;;;;21.04;100.00;151327.16;5071184;28;20229;-61
2022/09/18 08:52:47;;;;;;;3.80;1.07;;;;;;;21.29;100.00;151390.91;5071623;28;20630;-62
2022/09/18 08:55:21;;;;;;;1.15;0.90;;;;;;;21.32;100.00;151398.53;5071555;28;20734;-62
2022/09/18 08:57:52;;;;;;;0.90;0.90;;;;;;;21.31;100.00;151394.69;5071513;28;20627;-61
2022/09/18 09:00:24;;;;;;;1.98;0.80;;;;;;;21.35;100.00;151406.16;5071518;28;20215;-60
2022/09/18 09:02:53;;;;;;;1.10;1.10;;;;;;;21.71;100.00;151495.41;5071187;28;20189;-61
2022/09/18 09:05:22;;;;;;;1.50;1.00;;;;;;;21.66;100.00;151482.66;5071704;28;20630;-60
2022/09/18 09:08:08;;;;;;;1.60;1.23;;;;;;;21.72;100.00;151499.25;5070224;28;20197;-62
2022/09/18 09:10:42;;;;;;;1.60;1.10;;;;;;;21.80;100.00;151519.63;5071430;28;20607;-62
2022/09/18 09:13:42;;;;;;;1.38;1.25;;;;;;;22.23;100.00;151628.06;5071089;28;20185;-61
2022/09/18 09:16:15;;;;;;;1.70;1.10;;;;;;;22.04;100.00;151579.56;5074816;28;20185;-61
2022/09/18 09:18:56;;;;;;;1.38;1.25;;;;;;;22.02;100.00;151574.50;5074780;28;20224;-61
2022/09/18 09:21:24;;;;;;;1.50;1.42;;;;;;;;;;5075232;28;20550;-61
2022/09/18 09:24:16;;;;;;;1.95;1.10;;;;;;;23.59;96.04;151970.03;5075129;28;20200;-61
2022/09/18 09:26:44;;;;;;;4.68;1.20;;;;;;;23.78;92.39;152018.50;5074675;28;20242;-60
2022/09/18 09:29:19;;;;;;;3.70;1.35;;;;;;;24.32;87.25;152155.13;5075040;28;20634;-61
2022/09/18 09:31:51;;;;;;;2.95;1.30;;;;;;;24.45;86.27;152187.06;5074897;28;20625;-61
2022/09/18 09:34:25;;;;;;;1.35;1.25;;;;;;;24.78;86.33;152271.34;5074476;28;20204;-61
2022/09/18 09:36:56;;;;;;;1.20;1.20;;;;;;;25.07;83.34;152342.94;5074457;28;20189;-60
2022/09/18 09:39:27;;;;;;;5.15;1.20;;;;;;;25.40;77.98;152427.25;5074528;28;20192;-61
2022/09/18 09:42:02;;;;;;;1.30;1.30;;;;;;;25.71;77.91;152506.56;5074332;28;20184;-60
2022/09/18 09:44:34;;;;;;;1.35;1.15;;;;;;;25.42;79.75;152432.34;5074335;28;20180;-62
2022/09/18 09:47:15;;;;;;;1.65;1.38;;;;;;;24.94;80.20;152312.28;5074737;28;20611;-61
2022/09/18 09:49:50;;;;;;;2.50;1.30;;;;;;;24.84;79.30;152286.69;5074284;28;20192;-61
2022/09/18 09:52:22;;;;;;;1.25;1.15;;;;;;;25.00;78.76;152326.31;5074553;28;20550;-61
2022/09/18 09:54:53;;;;;;;1.35;1.23;;;;;;;25.00;78.42;152326.31;5074168;28;20223;-61
2022/09/18 09:57:27;;;;;;;1.52;1.45;;;;;;;25.14;76.33;152360.81;5074584;28;20254;-60
2022/09/18 10:00:05;;;;;;;5.43;1.30;;;;;;;25.32;77.04;152406.81;5074181;28;20189;-62
2022/09/18 10:02:50;;;;;;;2.03;1.23;;;;;;;25.51;73.76;152454.06;5074129;28;20188;-61
2022/09/18 10:05:23;;;;;;;1.10;1.00;;;;;;;25.45;72.38;152440.06;5074058;28;20217;-61
2022/09/18 10:07:56;;;;;;;1.30;1.20;;;;;;;25.81;71.93;152530.81;5074308;28;20207;-61
2022/09/18 10:10:36;;;;;;;1.77;1.15;;;;;;;25.88;70.80;152550.03;5073964;28;20195;-61
2022/09/18 10:13:06;;;;;;;3.55;1.20;;;;;;;25.96;69.11;152567.91;5074214;28;20181;-61
2022/09/18 10:15:37;;;;;;;5.03;1.48;;;;;;;25.81;71.27;152532.09;5074030;28;20216;-62
2022/09/18 10:18:13;;;;;;;1.15;1.10;;;;;;;26.21;67.89;152631.84;5073921;28;20236;-62
2022/09/18 10:20:41;;;;;;;1.20;1.20;;;;;;;26.24;68.33;152640.81;5073778;28;20275;-62
2022/09/18 10:23:15;;;;;;;1.33;1.08;;;;;;;26.08;65.55;152598.56;5074331;28;20243;-62
2022/09/18 10:25:48;;;;;;;1.17;1.17;;;;;;;26.46;65.66;152694.50;5073370;28;20679;-61
2022/09/18 10:28:16;;;;;;;3.50;1.20;;;;;;;26.53;63.16;152713.66;5073663;28;20562;-60
2022/09/18 10:30:55;;;;;;;3.65;1.10;;;;;;;26.92;62.60;152810.91;5073843;28;20185;-62
2022/09/18 10:33:38;;;;;;;1.60;1.50;;;;;;;26.77;63.21;152775.09;5073919;28;20252;-62
2022/09/18 10:36:18;;;;;;;1.08;1.08;;;;;;;27.05;61.51;152844.19;5073450;28;20215;-62
2022/09/18 10:38:46;;;;;;;3.75;1.55;;;;;;;26.86;62.54;152795.59;5073696;28;20191;-61
2022/09/18 10:41:27;;;;;;;5.20;1.38;;;;;;;26.30;63.77;152656.16;5073978;28;20687;-60
2022/09/18 10:43:58;;;;;;;2.53;1.30;;;;;;;26.12;63.76;152610.09;5073587;28;20195;-61
2022/09/18 10:46:28;;;;;;;1.23;1.00;;;;;;;26.46;63.44;152694.50;5073388;28;20180;-61
2022/09/18 10:48:58;;;;;;;3.47;1.17;;;;;;;26.99;60.83;152828.84;5073700;28;20185;-62
2022/09/18 10:51:27;;;;;;;1.10;1.10;;;;;;;27.99;55.36;153082.22;5073366;28;20202;-61
2022/09/18 10:54:14;;;;;;;1.27;1.13;;;;;;;28.11;54.45;153114.25;5073254;28;20188;-61
2022/09/18 10:56:41;;;;;;;1.25;1.10;;;;;;;27.62;55.98;152990.09;5073346;28;20210;-61
2022/09/18 10:59:33;;;;;;;6.00;1.10;;;;;;;26.97;57.26;152823.72;5071836;28;20189;-60
2022/09/18 11:02:03;;;;;;;2.47;1.20;;;;;;;25.93;62.09;152562.75;5072096;28;20556;-62
2022/09/18 11:04:33;;;;;;;1.52;1.42;;;;;;;25.38;67.74;152422.13;5073315;28;20649;-61
2022/09/18 11:07:03;;;;;;;1.48;1.38;;;;;;;24.64;73.56;152234.31;5072794;28;20284;-61
2022/09/18 11:09:36;;;;;;;2.08;1.25;;;;;;;23.95;81.00;152060.63;5072826;28;20197;-61
2022/09/18 11:12:04;;;;;;;2.42;1.15;;;;;;;23.67;81.47;151991.72;5072690;28;20185;-61
2022/09/18 11:14:40;;;;;;;1.63;1.10;;;;;;;23.12;79.59;151851.28;5072373;28;20208;-61
2022/09/18 11:17:18;;;;;;;1.70;1.00;;;;;;;22.93;81.07;151802.78;5072561;28;20235;-62
2022/09/18 11:19:51;;;;;;;6.25;1.00;;;;;;;22.91;80.53;151799.00;5071577;28;20637;-61
2022/09/18 11:22:34;;;;;;;3.90;1.20;;;;;;;22.93;80.98;151804.06;5072666;28;20197;-62
2022/09/18 11:25:20;;;;;;;1.20;1.20;;;;;;;22.99;86.22;151819.41;5072765;28;20268;-62
2022/09/18 11:27:49;;;;;;;7.25;1.35;;;;;;;23.07;84.68;151839.81;5072610;28;20189;-62
2022/09/18 11:30:20;;;;;;;1.90;0.88;;;;;;;23.16;86.58;151862.78;5072700;28;20275;-62
2022/09/18 11:32:50;;;;;;;5.50;1.20;;;;;;;22.80;84.49;151770.91;5072684;28;20198;-61
2022/09/18 11:35:21;;;;;;;1.33;1.13;;;;;;;22.49;86.09;151693.03;5072658;28;20236;-61